Time;durP1;ratioP1;P1;durP2;ratioP2;P2;SDS_P1;SDS_P2;PMS_P1;PMS_P2;Temp;Humidity;BMP_temperature;BMP_pressure;BME280_temperature;BME280_humidity;BME280_pressure;Samples;Min_cycle;Max_cycle;Signal;HPM_P1;HPM_P2
2024/01/08 00:02:21;;;;;;;15.75;5.20;;;;;;;;;;5096688;28;20039;-57
2024/01/08 00:04:46;;;;;;;18.13;6.03;;;;;;;;;;5096843;28;20067;-58
2024/01/08 00:07:11;;;;;;;18.42;5.70;;;;;;;;;;5097789;28;20012;-58
2024/01/08 00:09:36;;;;;;;20.70;6.07;;;;;;;;;;5095838;28;20096;-58
2024/01/08 00:12:02;;;;;;;16.83;4.82;;;;;;;;;;5096054;28;20714;-56
2024/01/08 00:14:27;;;;;;;17.70;5.70;;;;;;;;;;5094959;28;20186;-58
2024/01/08 00:16:52;;;;;;;19.77;5.25;;;;;;;;;;5097089;28;20407;-58
2024/01/08 00:19:17;;;;;;;20.63;7.73;;;;;;;;;;5097640;28;20398;-57
2024/01/08 00:21:42;;;;;;;23.93;9.30;;;;;;;;;;5096175;28;20269;-57
2024/01/08 00:24:08;;;;;;;21.77;7.75;;;;;;;;;;5094815;28;20380;-56
2024/01/08 00:26:33;;;;;;;23.83;9.98;;;;;;;;;;5095231;28;20426;-56
2024/01/08 00:28:59;;;;;;;23.40;8.80;;;;;;;;;;5098827;28;20463;-57
2024/01/08 00:31:24;;;;;;;23.50;10.70;;;;;;;;;;5098062;28;20032;-57
2024/01/08 00:33:49;;;;;;;21.67;8.93;;;;;;;;;;5099476;28;20519;-56
2024/01/08 00:36:14;;;;;;;24.43;9.33;;;;;;;;;;5097665;28;20043;-58
2024/01/08 00:38:39;;;;;;;24.95;10.88;;;;;;;;;;5098425;28;20788;-57
2024/01/08 00:41:05;;;;;;;28.85;13.40;;;;;;;;;;5098843;28;20012;-58
2024/01/08 00:43:30;;;;;;;26.33;11.82;;;;;;;;;;5097963;28;20089;-57
2024/01/08 00:45:55;;;;;;;29.80;11.40;;;;;;;;;;5095392;28;20019;-58
2024/01/08 00:48:20;;;;;;;24.40;9.73;;;;;;;;;;5097723;28;21165;-57
2024/01/08 00:50:47;;;;;;;25.02;9.75;;;;;;;;;;5098919;28;20280;-58
2024/01/08 00:53:12;;;;;;;24.77;8.75;;;;;;;;;;5097185;28;20024;-58
2024/01/08 00:55:37;;;;;;;24.40;9.33;;;;;;;;;;5097998;28;20095;-57
2024/01/08 00:58:03;;;;;;;25.73;10.23;;;;;;;;;;5100533;28;20717;-59
2024/01/08 01:00:28;;;;;;;24.40;9.57;;;;;;;;;;5096660;28;20277;-59
2024/01/08 01:02:53;;;;;;;25.83;10.93;;;;;;;;;;5099065;28;21549;-58
2024/01/08 01:05:18;;;;;;;26.40;10.80;;;;;;;;;;5097978;28;20066;-58
2024/01/08 01:07:44;;;;;;;25.17;10.88;;;;;;;;;;5098822;28;20371;-58
2024/01/08 01:10:10;;;;;;;25.58;10.43;;;;;;;;;;5096499;28;20016;-58
2024/01/08 01:12:35;;;;;;;24.45;10.57;;;;;;;;;;5098602;28;20398;-58
2024/01/08 01:15:00;;;;;;;24.50;10.40;;;;;;;;;;5098146;28;20398;-58
2024/01/08 01:17:25;;;;;;;20.50;8.00;;;;;;;;;;5098220;28;20451;-58
2024/01/08 01:19:50;;;;;;;20.83;9.13;;;;;;;;;;5096857;28;20481;-58
2024/01/08 01:22:16;;;;;;;21.25;7.93;;;;;;;;;;5097090;28;20265;-58
2024/01/08 01:24:41;;;;;;;20.02;6.75;;;;;;;;;;5099335;28;20855;-58
2024/01/08 01:27:06;;;;;;;20.67;7.13;;;;;;;;;;5098092;28;20043;-58
2024/01/08 01:29:31;;;;;;;19.73;6.63;;;;;;;;;;5100137;28;20012;-57
2024/01/08 01:31:56;;;;;;;20.63;7.03;;;;;;;;;;5099229;28;20064;-58
2024/01/08 01:34:21;;;;;;;21.42;7.43;;;;;;;;;;5099832;28;20644;-58
2024/01/08 01:36:48;;;;;;;20.30;7.43;;;;;;;;;;5097933;28;20434;-58
2024/01/08 01:39:13;;;;;;;20.42;8.82;;;;;;;;;;5099387;28;20267;-59
2024/01/08 01:41:38;;;;;;;20.88;7.28;;;;;;;;;;5099456;28;20028;-58
2024/01/08 01:44:03;;;;;;;19.60;6.75;;;;;;;;;;5097039;28;20052;-58
2024/01/08 01:46:44;;;;;;;21.23;7.97;;;;;;;;;;5096634;28;20351;-58
2024/01/08 01:49:11;;;;;;;21.92;8.40;;;;;;;;;;5098199;28;20051;-58
2024/01/08 01:51:36;;;;;;;19.00;6.68;;;;;;;;;;5097340;28;20107;-58
2024/01/08 01:54:02;;;;;;;20.63;6.85;;;;;;;;;;5096515;28;20126;-58
2024/01/08 01:56:27;;;;;;;19.95;7.28;;;;;;;;;;5096631;28;20111;-58
2024/01/08 01:58:52;;;;;;;20.80;6.97;;;;;;;;;;5099210;28;20494;-58
2024/01/08 02:01:18;;;;;;;18.83;7.10;;;;;;;;;;5097822;28;20366;-58
2024/01/08 02:03:44;;;;;;;18.80;6.07;;;;;;;;;;5097971;28;20102;-58
2024/01/08 02:06:11;;;;;;;19.13;7.28;;;;;;;;;;5095641;28;20433;-58
2024/01/08 02:08:36;;;;;;;17.95;6.03;;;;;;;;;;5096955;28;20374;-58
2024/01/08 02:11:03;;;;;;;16.75;5.28;;;;;;;;;;5100136;28;20028;-58
2024/01/08 02:13:28;;;;;;;18.27;5.72;;;;;;;;;;5096884;28;20059;-58
2024/01/08 02:15:53;;;;;;;16.92;5.25;;;;;;;;;;5099634;28;20478;-58
2024/01/08 02:18:19;;;;;;;17.25;5.47;;;;;;;;;;5097244;28;20021;-58
2024/01/08 02:20:44;;;;;;;18.27;5.07;;;;;;;;;;5097355;28;20028;-58
2024/01/08 02:23:09;;;;;;;20.45;5.32;;;;;;;;;;5099106;28;20036;-58
2024/01/08 02:25:34;;;;;;;19.90;6.43;;;;;;;;;;5096013;28;20024;-59
2024/01/08 02:27:59;;;;;;;18.08;5.65;;;;;;;;;;5098888;28;20020;-58
2024/01/08 02:30:25;;;;;;;18.57;5.20;;;;;;;;;;5096894;28;21343;-58
2024/01/08 02:32:50;;;;;;;17.15;4.47;;;;;;;;;;5097274;28;20265;-56
2024/01/08 02:35:15;;;;;;;16.73;5.30;;;;;;;;;;5097807;28;20098;-59
2024/01/08 02:37:40;;;;;;;17.57;6.00;;;;;;;;;;5097555;28;20095;-57
2024/01/08 02:40:06;;;;;;;18.43;5.30;;;;;;;;;;5098173;28;20273;-57
2024/01/08 02:42:31;;;;;;;19.60;6.63;;;;;;;;;;5097438;28;20266;-58
2024/01/08 02:44:56;;;;;;;17.48;5.43;;;;;;;;;;5095110;28;20028;-59
2024/01/08 02:47:21;;;;;;;16.70;4.82;;;;;;;;;;5096179;28;20066;-59
2024/01/08 02:49:47;;;;;;;16.60;4.90;;;;;;;;;;5096130;28;20019;-55
2024/01/08 02:52:12;;;;;;;18.27;6.13;;;;;;;;;;5094587;28;20729;-55
2024/01/08 02:54:37;;;;;;;18.55;5.50;;;;;;;;;;5096457;28;20264;-59
2024/01/08 02:57:03;;;;;;;19.55;5.75;;;;;;;;;;5094983;28;20020;-58
2024/01/08 02:59:28;;;;;;;18.30;5.47;;;;;;;;;;5096781;28;20021;-57
2024/01/08 03:01:53;;;;;;;18.95;4.90;;;;;;;;;;5094087;28;20024;-57
2024/01/08 03:04:19;;;;;;;19.92;6.45;;;;;;;;;;5098742;28;20023;-57
2024/01/08 03:06:44;;;;;;;19.33;6.43;;;;;;;;;;5095078;28;20020;-57
2024/01/08 03:09:09;;;;;;;19.20;5.85;;;;;;;;;;5098411;28;20415;-56
2024/01/08 03:11:34;;;;;;;20.00;5.37;;;;;;;;;;5096279;28;21713;-56
2024/01/08 03:13:59;;;;;;;19.40;5.32;;;;;;;;;;5098481;28;20278;-59
2024/01/08 03:16:25;;;;;;;18.30;5.20;;;;;;;;;;5097370;28;20062;-58
2024/01/08 03:18:50;;;;;;;17.58;5.05;;;;;;;;;;5094648;28;20420;-58
2024/01/08 03:21:15;;;;;;;18.80;5.77;;;;;;;;;;5095296;28;20108;-58
2024/01/08 03:23:40;;;;;;;19.20;6.10;;;;;;;;;;5097110;28;20296;-58
2024/01/08 03:26:05;;;;;;;19.30;6.20;;;;;;;;;;5097130;28;20392;-59
2024/01/08 03:28:30;;;;;;;19.85;5.10;;;;;;;;;;5096332;28;20258;-58
2024/01/08 03:30:56;;;;;;;18.42;5.35;;;;;;;;;;5094745;28;20023;-59
2024/01/08 03:33:21;;;;;;;18.45;5.15;;;;;;;;;;5095597;28;20027;-58
2024/01/08 03:35:46;;;;;;;19.17;5.43;;;;;;;;;;5095729;28;20030;-58
2024/01/08 03:38:11;;;;;;;18.35;5.30;;;;;;;;;;5094808;28;20055;-57
2024/01/08 03:40:36;;;;;;;18.83;5.70;;;;;;;;;;5094843;28;20460;-58
2024/01/08 03:43:02;;;;;;;18.27;5.43;;;;;;;;;;5095165;28;20286;-58
2024/01/08 03:45:27;;;;;;;17.73;5.30;;;;;;;;;;5097736;28;20272;-58
2024/01/08 03:47:52;;;;;;;17.50;5.40;;;;;;;;;;5096292;28;20363;-59
2024/01/08 03:50:17;;;;;;;17.95;5.38;;;;;;;;;;5096099;28;20138;-59
2024/01/08 03:52:43;;;;;;;21.20;5.47;;;;;;;;;;5096132;28;20031;-59
2024/01/08 03:55:09;;;;;;;19.57;5.80;;;;;;;;;;5095438;28;20276;-58
2024/01/08 03:57:34;;;;;;;19.50;5.53;;;;;;;;;;5094475;28;20753;-58
2024/01/08 03:59:59;;;;;;;17.48;5.20;;;;;;;;;;5097319;28;20023;-59
2024/01/08 04:02:25;;;;;;;18.00;5.83;;;;;;;;;;5098006;28;20490;-59
2024/01/08 04:04:50;;;;;;;20.58;5.78;;;;;;;;;;5097397;28;20323;-58
2024/01/08 04:07:15;;;;;;;18.42;5.60;;;;;;;;;;5100365;28;20485;-58
2024/01/08 04:09:41;;;;;;;18.43;5.37;;;;;;;;;;5101581;28;20023;-58
2024/01/08 04:12:06;;;;;;;20.23;6.40;;;;;;;;;;5097938;28;20266;-59
2024/01/08 04:14:32;;;;;;;17.55;4.70;;;;;;;;;;5099003;28;20031;-59
2024/01/08 04:16:57;;;;;;;17.20;4.47;;;;;;;;;;5097492;28;20023;-57
2024/01/08 04:19:23;;;;;;;19.23;6.45;;;;;;;;;;5099851;28;20460;-59
2024/01/08 04:21:48;;;;;;;16.48;4.88;;;;;;;;;;5099338;28;20039;-58
2024/01/08 04:24:13;;;;;;;17.73;5.03;;;;;;;;;;5100768;28;20028;-59
2024/01/08 04:26:39;;;;;;;18.52;5.70;;;;;;;;;;5099744;28;20849;-58
2024/01/08 04:29:04;;;;;;;18.58;5.55;;;;;;;;;;5098825;28;20023;-58
2024/01/08 04:31:31;;;;;;;16.05;4.72;;;;;;;;;;5097485;28;20020;-58
2024/01/08 04:33:56;;;;;;;15.93;4.60;;;;;;;;;;5098281;28;20019;-58
2024/01/08 04:36:21;;;;;;;19.48;5.75;;;;;;;;;;5099646;28;20015;-59
2024/01/08 04:38:46;;;;;;;17.37;5.20;;;;;;;;;;5097695;28;20577;-58
2024/01/08 04:41:20;;;;;;;18.60;5.38;;;;;;;;;;5099149;28;20258;-59
2024/01/08 04:43:46;;;;;;;15.43;4.43;;;;;;;;;;5098463;28;20055;-59
2024/01/08 04:46:11;;;;;;;17.45;5.10;;;;;;;;;;5096558;27;20024;-59
2024/01/08 04:48:36;;;;;;;18.83;5.90;;;;;;;;;;5096948;28;20154;-59
2024/01/08 04:51:01;;;;;;;16.05;4.80;;;;;;;;;;5098300;28;20008;-59
2024/01/08 04:53:26;;;;;;;18.52;4.88;;;;;;;;;;5095736;28;20391;-59
2024/01/08 04:55:52;;;;;;;19.00;6.10;;;;;;;;;;5099571;28;20030;-57
2024/01/08 04:58:17;;;;;;;16.87;4.90;;;;;;;;;;5096689;28;20278;-58
2024/01/08 05:00:42;;;;;;;18.55;6.30;;;;;;;;;;5099186;28;20269;-58
2024/01/08 05:03:11;;;;;;;19.10;5.00;;;;;;;;;;5094869;28;20032;-58
2024/01/08 05:05:36;;;;;;;19.73;5.40;;;;;;;;;;5098382;28;20051;-58
2024/01/08 05:08:01;;;;;;;19.73;6.43;;;;;;;;;;5096260;28;20323;-58
2024/01/08 05:10:26;;;;;;;18.70;5.68;;;;;;;;;;5097534;28;20254;-58
2024/01/08 05:12:51;;;;;;;17.37;5.07;;;;;;;;;;5097952;28;20035;-58
2024/01/08 05:15:17;;;;;;;20.05;5.43;;;;;;;;;;5098865;28;20269;-58
2024/01/08 05:17:42;;;;;;;20.05;5.43;;;;;;;;;;5095972;28;20401;-59
2024/01/08 05:20:08;;;;;;;19.58;6.05;;;;;;;;;;5097949;28;20038;-58
2024/01/08 05:22:35;;;;;;;19.40;6.25;;;;;;;;;;5096750;28;20669;-58
2024/01/08 05:25:00;;;;;;;18.45;5.85;;;;;;;;;;5097831;28;20114;-58
2024/01/08 05:27:25;;;;;;;22.37;7.10;;;;;;;;;;5095489;28;20432;-59
2024/01/08 05:29:51;;;;;;;20.57;6.23;;;;;;;;;;5093947;28;20260;-59
2024/01/08 05:32:16;;;;;;;21.63;6.88;;;;;;;;;;5095603;28;20769;-58
2024/01/08 05:34:42;;;;;;;20.25;6.95;;;;;;;;;;5097662;28;20020;-59
2024/01/08 05:37:07;;;;;;;19.75;6.18;;;;;;;;;;5095237;28;20016;-58
2024/01/08 05:39:32;;;;;;;21.35;7.00;;;;;;;;;;5097288;28;20011;-59
2024/01/08 05:41:57;;;;;;;22.98;7.93;;;;;;;;;;5098087;28;20045;-59
2024/01/08 05:44:22;;;;;;;21.85;7.63;;;;;;;;;;5096409;28;20315;-59
2024/01/08 05:46:48;;;;;;;21.27;6.65;;;;;;;;;;5099746;28;20043;-59
2024/01/08 05:49:13;;;;;;;21.33;7.45;;;;;;;;;;5096756;28;20020;-59
2024/01/08 05:51:38;;;;;;;21.92;7.03;;;;;;;;;;5097901;28;20020;-60
2024/01/08 05:54:03;;;;;;;21.13;7.32;;;;;;;;;;5096003;28;20375;-59
2024/01/08 05:56:29;;;;;;;20.38;6.88;;;;;;;;;;5095553;28;20086;-59
2024/01/08 05:58:54;;;;;;;21.15;8.45;;;;;;;;;;5096123;28;20551;-60
2024/01/08 06:01:19;;;;;;;19.88;6.63;;;;;;;;;;5095803;28;20019;-58
2024/01/08 06:03:45;;;;;;;19.45;6.18;;;;;;;;;;5095931;28;20115;-59
2024/01/08 06:06:13;;;;;;;21.52;6.72;;;;;;;;;;5096553;28;20486;-60
2024/01/08 06:08:40;;;;;;;19.63;6.88;;;;;;;;;;5096044;28;20028;-59
2024/01/08 06:11:05;;;;;;;20.80;6.10;;;;;;;;;;5096572;28;20057;-58
2024/01/08 06:13:31;;;;;;;21.98;8.50;;;;;;;;;;5095894;28;20407;-58
2024/01/08 06:15:56;;;;;;;21.25;6.80;;;;;;;;;;5097302;28;20020;-58
2024/01/08 06:18:21;;;;;;;21.27;6.93;;;;;;;;;;5094679;28;20024;-58
2024/01/08 06:20:46;;;;;;;22.63;7.18;;;;;;;;;;5096647;28;20023;-58
2024/01/08 06:23:11;;;;;;;22.40;7.67;;;;;;;;;;5093207;28;20023;-58
2024/01/08 06:25:37;;;;;;;22.67;7.00;;;;;;;;;;5095794;28;20380;-58
2024/01/08 06:28:02;;;;;;;21.50;7.72;;;;;;;;;;5093783;28;20266;-58
2024/01/08 06:30:27;;;;;;;20.73;6.57;;;;;;;;;;5096059;28;20471;-58
2024/01/08 06:32:52;;;;;;;21.33;6.57;;;;;;;;;;5097254;28;20028;-59
2024/01/08 06:35:17;;;;;;;22.13;7.55;;;;;;;;;;5095880;28;20027;-58
2024/01/08 06:37:43;;;;;;;19.63;6.70;;;;;;;;;;5096404;28;20383;-58
2024/01/08 06:40:08;;;;;;;22.73;8.07;;;;;;;;;;5097080;28;20254;-58
2024/01/08 06:42:33;;;;;;;20.73;8.52;;;;;;;;;;5093934;28;20591;-58
2024/01/08 06:44:58;;;;;;;20.23;7.27;;;;;;;;;;5095213;28;20162;-58
2024/01/08 06:47:24;;;;;;;21.47;6.67;;;;;;;;;;5096849;28;20265;-59
2024/01/08 06:49:49;;;;;;;21.27;7.25;;;;;;;;;;5095816;28;20361;-58
2024/01/08 06:52:14;;;;;;;21.15;7.03;;;;;;;;;;5096169;28;20024;-58
2024/01/08 06:54:39;;;;;;;21.00;6.65;;;;;;;;;;5094312;28;20052;-59
2024/01/08 06:57:04;;;;;;;21.90;8.02;;;;;;;;;;5096988;28;20070;-58
2024/01/08 06:59:30;;;;;;;22.52;8.20;;;;;;;;;;5093989;28;20047;-59
2024/01/08 07:01:55;;;;;;;22.67;8.55;;;;;;;;;;5099081;28;20027;-58
2024/01/08 07:04:20;;;;;;;21.63;7.05;;;;;;;;;;5095962;28;20134;-58
2024/01/08 07:06:46;;;;;;;22.23;7.93;;;;;;;;;;5093931;28;20105;-58
2024/01/08 07:09:11;;;;;;;23.55;9.07;;;;;;;;;;5097105;28;20016;-59
2024/01/08 07:11:36;;;;;;;21.88;7.38;;;;;;;;;;5101638;28;20395;-59
2024/01/08 07:14:02;;;;;;;22.73;8.18;;;;;;;;;;5095330;28;20042;-60
2024/01/08 07:16:27;;;;;;;21.73;7.00;;;;;;;;;;5096609;28;20156;-59
2024/01/08 07:18:53;;;;;;;22.60;8.50;;;;;;;;;;5095329;28;20062;-59
2024/01/08 07:21:19;;;;;;;21.55;8.02;;;;;;;;;;5093325;28;20391;-59
2024/01/08 07:23:45;;;;;;;20.88;7.57;;;;;;;;;;5096823;28;20060;-59
2024/01/08 07:26:10;;;;;;;22.70;8.18;;;;;;;;;;5095228;28;20019;-59
2024/01/08 07:28:36;;;;;;;23.08;7.10;;;;;;;;;;5095588;28;20025;-60
2024/01/08 07:31:03;;;;;;;23.35;7.63;;;;;;;;;;5093314;28;20027;-59
2024/01/08 07:33:28;;;;;;;22.65;7.47;;;;;;;;;;5094579;28;20021;-59
2024/01/08 07:35:53;;;;;;;22.48;8.18;;;;;;;;;;5098731;28;20026;-60
2024/01/08 07:38:21;;;;;;;23.98;8.82;;;;;;;;;;5104148;28;20071;-59
2024/01/08 07:40:46;;;;;;;21.85;7.22;;;;;;;;;;5095832;28;20047;-58
2024/01/08 07:43:12;;;;;;;23.45;8.40;;;;;;;;;;5098810;28;20086;-59
2024/01/08 07:45:38;;;;;;;21.85;7.22;;;;;;;;;;5097097;28;20057;-59
2024/01/08 07:48:03;;;;;;;20.73;6.53;;;;;;;;;;5102838;28;20098;-59
2024/01/08 07:50:29;;;;;;;21.67;7.72;;;;;;;;;;5097984;28;20302;-58
2024/01/08 07:52:54;;;;;;;19.75;6.68;;;;;;;;;;5088892;28;20048;-59
2024/01/08 07:55:20;;;;;;;21.60;6.50;;;;;;;;;;5101587;28;20019;-59
2024/01/08 07:57:46;;;;;;;19.77;7.40;;;;;;;;;;5093024;28;20398;-60
2024/01/08 08:00:11;;;;;;;21.50;7.63;;;;;;;;;;5091762;28;20008;-59
2024/01/08 08:02:37;;;;;;;18.77;5.82;;;;;;;;;;5100420;28;20024;-59
2024/01/08 08:05:02;;;;;;;18.50;6.45;;;;;;;;;;5095506;28;20028;-59
2024/01/08 08:07:30;;;;;;;21.20;7.05;;;;;;;;;;5091776;28;20020;-59
2024/01/08 08:09:55;;;;;;;19.55;6.85;;;;;;;;;;5094055;28;20104;-59
2024/01/08 08:12:21;;;;;;;20.05;7.07;;;;;;;;;;5092092;28;20107;-59
2024/01/08 08:14:50;;;;;;;22.00;8.13;;;;;;;;;;5091814;28;20036;-59
2024/01/08 08:17:18;;;;;;;21.08;7.18;;;;;;;;;;5091436;28;20023;-59
2024/01/08 08:19:43;;;;;;;19.50;6.45;;;;;;;;;;5093581;28;20158;-59
2024/01/08 08:22:11;;;;;;;21.02;7.63;;;;;;;;;;5091781;28;20522;-59
2024/01/08 08:24:36;;;;;;;17.92;5.97;;;;;;;;;;5095211;28;20029;-59
2024/01/08 08:27:01;;;;;;;19.63;6.43;;;;;;;;;;5093418;28;20028;-59
2024/01/08 08:29:26;;;;;;;20.95;7.00;;;;;;;;;;5092303;28;20070;-59
2024/01/08 08:31:51;;;;;;;20.80;5.80;;;;;;;;;;5094309;28;20092;-59
2024/01/08 08:34:17;;;;;;;19.80;6.95;;;;;;;;;;5092849;28;21759;-58
2024/01/08 08:36:42;;;;;;;19.83;5.95;;;;;;;;;;5095477;28;20490;-60
2024/01/08 08:39:07;;;;;;;19.27;6.60;;;;;;;;;;5093093;28;20019;-60
2024/01/08 08:41:32;;;;;;;21.38;7.30;;;;;;;;;;5092923;28;20035;-59
2024/01/08 08:43:58;;;;;;;19.37;5.80;;;;;;;;;;5092342;28;20051;-59
2024/01/08 08:46:23;;;;;;;19.80;6.63;;;;;;;;;;5095781;28;20356;-58
2024/01/08 08:48:48;;;;;;;19.40;6.40;;;;;;;;;;5096722;28;20058;-59
2024/01/08 08:51:13;;;;;;;20.80;6.67;;;;;;;;;;5098711;28;20270;-58
2024/01/08 08:53:39;;;;;;;19.45;6.28;;;;;;;;;;5097683;28;20323;-57
2024/01/08 08:56:04;;;;;;;18.10;5.63;;;;;;;;;;5099483;28;20064;-58
2024/01/08 08:58:29;;;;;;;20.90;6.90;;;;;;;;;;5097794;28;20283;-58
2024/01/08 09:00:56;;;;;;;20.98;6.80;;;;;;;;;;5097623;28;20020;-58
2024/01/08 09:03:21;;;;;;;18.50;6.10;;;;;;;;;;5096398;28;20047;-59
2024/01/08 09:05:46;;;;;;;20.08;6.15;;;;;;;;;;5098758;28;20066;-59
2024/01/08 09:08:11;;;;;;;18.90;6.65;;;;;;;;;;5101005;28;20035;-59
2024/01/08 09:10:37;;;;;;;16.07;5.17;;;;;;;;;;5094665;28;20016;-59
2024/01/08 09:13:02;;;;;;;20.48;6.13;;;;;;;;;;5091584;28;20278;-58
2024/01/08 09:15:27;;;;;;;21.60;7.18;;;;;;;;;;5086982;28;20094;-58
2024/01/08 09:17:53;;;;;;;20.58;7.13;;;;;;;;;;5095513;28;20016;-58
2024/01/08 09:20:18;;;;;;;22.00;7.17;;;;;;;;;;5097548;28;20027;-57
2024/01/08 09:22:43;;;;;;;20.67;7.03;;;;;;;;;;5100373;28;20269;-59
2024/01/08 09:25:08;;;;;;;21.30;8.20;;;;;;;;;;5100597;28;20034;-58
2024/01/08 09:27:34;;;;;;;20.33;7.28;;;;;;;;;;5109081;28;20469;-56
2024/01/08 09:29:59;;;;;;;20.92;7.32;;;;;;;;;;5100695;28;20420;-57
2024/01/08 09:32:24;;;;;;;19.40;7.03;;;;;;;;;;5109328;28;20485;-56
2024/01/08 09:34:50;;;;;;;20.45;7.15;;;;;;;;;;5099614;28;20032;-56
2024/01/08 09:37:15;;;;;;;20.70;7.13;;;;;;;;;;5098135;28;20030;-56
2024/01/08 09:39:42;;;;;;;22.17;8.45;;;;;;;;;;5094579;28;20024;-55
2024/01/08 09:42:08;;;;;;;22.63;6.40;;;;;;;;;;5096899;28;20065;-56
2024/01/08 09:44:34;;;;;;;22.60;8.35;;;;;;;;;;5096515;28;20387;-57
2024/01/08 09:47:02;;;;;;;20.52;7.95;;;;;;;;;;5098908;28;20448;-57
2024/01/08 09:49:29;;;;;;;20.33;6.47;;;;;;;;;;5097135;28;20008;-55
2024/01/08 09:51:54;;;;;;;19.95;7.32;;;;;;;;;;5099094;28;20023;-56
2024/01/08 09:54:21;;;;;;;19.75;7.38;;;;;;;;;;5096104;28;20024;-56
2024/01/08 09:56:50;;;;;;;20.35;7.30;;;;;;;;;;5095325;28;20015;-55
2024/01/08 09:59:16;;;;;;;20.17;6.40;;;;;;;;;;5093118;28;20379;-55
2024/01/08 10:01:41;;;;;;;19.70;6.40;;;;;;;;;;5096211;28;20039;-55
2024/01/08 10:04:07;;;;;;;20.88;6.65;;;;;;;;;;5094631;28;20115;-56
2024/01/08 10:06:32;;;;;;;17.93;5.53;;;;;;;;;;5095794;28;20383;-55
2024/01/08 10:08:57;;;;;;;19.47;7.80;;;;;;;;;;5096873;28;20324;-54
2024/01/08 10:11:22;;;;;;;20.03;7.57;;;;;;;;;;5095421;28;20266;-56
2024/01/08 10:13:48;;;;;;;22.95;8.90;;;;;;;;;;5093320;28;20274;-56
2024/01/08 10:16:14;;;;;;;19.63;6.60;;;;;;;;;;5095753;28;20016;-56
2024/01/08 10:18:39;;;;;;;17.92;6.18;;;;;;;;;;5095241;28;20092;-56
2024/01/08 10:21:11;;;;;;;20.38;6.72;;;;;;;;;;5094166;28;20065;-55
2024/01/08 10:23:37;;;;;;;21.90;6.90;;;;;;;;;;5095483;28;20020;-57
2024/01/08 10:26:02;;;;;;;20.08;7.38;;;;;;;;;;5096021;28;20024;-57
2024/01/08 10:28:33;;;;;;;19.38;6.88;;;;;;;;;;5096681;28;20157;-56
2024/01/08 10:30:58;;;;;;;20.52;6.60;;;;;;;;;;5097568;28;20024;-57
2024/01/08 10:33:24;;;;;;;19.10;6.40;;;;;;;;;;5096749;28;20012;-57
2024/01/08 10:35:50;;;;;;;18.80;6.38;;;;;;;;;;5096142;28;20027;-57
2024/01/08 10:38:16;;;;;;;20.40;6.25;;;;;;;;;;5095718;28;20024;-57
2024/01/08 10:40:42;;;;;;;19.38;6.47;;;;;;;;;;5095835;28;20030;-57
2024/01/08 10:43:07;;;;;;;19.58;6.30;;;;;;;;;;5092283;28;20055;-57
2024/01/08 10:45:33;;;;;;;19.13;6.30;;;;;;;;;;5093853;28;20394;-57
2024/01/08 10:48:16;;;;;;;18.63;6.30;;;;;;;;;;5094461;28;20027;-58
2024/01/08 10:50:44;;;;;;;19.50;6.20;;;;;;;;;;5094443;28;20035;-57
2024/01/08 10:53:13;;;;;;;18.08;6.35;;;;;;;;;;5094758;28;20024;-56
2024/01/08 10:55:41;;;;;;;18.05;6.05;;;;;;;;;;5091525;28;20395;-56
2024/01/08 10:58:08;;;;;;;18.65;5.95;;;;;;;;;;5094712;28;20152;-56
2024/01/08 11:00:34;;;;;;;17.73;5.63;;;;;;;;;;5095360;28;20016;-57
2024/01/08 11:03:00;;;;;;;18.45;6.15;;;;;;;;;;5095434;28;20020;-56
2024/01/08 11:05:26;;;;;;;17.35;5.72;;;;;;;;;;5091384;28;20032;-58
2024/01/08 11:07:53;;;;;;;19.35;5.20;;;;;;;;;;5094745;28;20031;-58
2024/01/08 11:10:21;;;;;;;19.13;6.32;;;;;;;;;;5095169;28;20022;-57
2024/01/08 11:12:56;;;;;;;16.40;5.50;;;;;;;;;;5098683;28;20073;-57
2024/01/08 11:15:26;;;;;;;19.75;6.57;;;;;;;;;;5094981;28;20363;-58
2024/01/08 11:17:52;;;;;;;17.13;5.97;;;;;;;;;;5105489;28;20151;-57
2024/01/08 11:20:36;;;;;;;18.15;5.80;;;;;;;;;;5096893;28;23956;-57
2024/01/08 11:23:02;;;;;;;16.92;5.50;;;;;;;;;;5109798;28;20421;-57
2024/01/08 11:25:27;;;;;;;21.30;6.45;;;;;;;;;;5096275;28;20039;-57
2024/01/08 11:27:57;;;;;;;19.05;6.65;;;;;;;;;;5103300;28;20015;-57
2024/01/08 11:30:22;;;;;;;18.30;5.63;;;;;;;;;;5094812;28;20439;-56
2024/01/08 11:33:07;;;;;;;19.07;6.10;;;;;;;;;;5103752;28;20173;-58
2024/01/08 11:35:39;;;;;;;17.08;5.43;;;;;;;;;;5095004;28;20265;-58
2024/01/08 11:38:27;;;;;;;17.33;5.75;;;;;;;;;;5094764;28;20019;-57
2024/01/08 11:40:53;;;;;;;19.08;6.15;;;;;;;;;;5093432;28;20110;-55
2024/01/08 11:43:19;;;;;;;18.10;5.65;;;;;;;;;;5095119;28;20138;-57
2024/01/08 11:45:45;;;;;;;18.13;6.13;;;;;;;;;;5095810;28;20024;-57
2024/01/08 11:48:10;;;;;;;18.42;5.93;;;;;;;;;;5093823;28;21635;-58
2024/01/08 11:50:36;;;;;;;15.63;4.40;;;;;;;;;;5093125;28;20031;-56
2024/01/08 11:53:02;;;;;;;15.93;5.30;;;;;;;;;;5093997;28;20272;-56
2024/01/08 11:55:29;;;;;;;17.60;5.28;;;;;;;;;;5096215;28;20028;-58
2024/01/08 11:57:54;;;;;;;19.10;5.20;;;;;;;;;;5091808;28;20072;-56
2024/01/08 12:00:22;;;;;;;18.27;5.53;;;;;;;;;;5095817;28;20023;-57
2024/01/08 12:02:47;;;;;;;18.10;5.50;;;;;;;;;;5092504;28;20027;-57
2024/01/08 12:05:13;;;;;;;17.15;4.97;;;;;;;;;;5094288;28;20019;-58
2024/01/08 12:07:38;;;;;;;17.42;5.15;;;;;;;;;;5093099;28;20666;-58
2024/01/08 12:10:05;;;;;;;18.55;5.53;;;;;;;;;;5093667;28;20523;-58
2024/01/08 12:12:30;;;;;;;16.38;4.63;;;;;;;;;;5095634;28;20387;-57
2024/01/08 12:14:55;;;;;;;15.32;5.03;;;;;;;;;;5093913;28;20028;-58
2024/01/08 12:17:21;;;;;;;14.90;4.45;;;;;;;;;;5093146;28;20106;-58
2024/01/08 12:19:57;;;;;;;12.35;3.90;;;;;;;;;;5095303;28;20026;-57
2024/01/08 12:22:24;;;;;;;15.60;3.83;;;;;;;;;;5095863;28;20475;-57
2024/01/08 12:24:50;;;;;;;13.30;3.50;;;;;;;;;;5093774;28;20123;-57
2024/01/08 12:27:17;;;;;;;9.57;3.28;;;;;;;;;;5095679;28;20031;-57
2024/01/08 12:29:42;;;;;;;11.60;3.47;;;;;;;;;;5097043;28;20459;-57
2024/01/08 12:32:09;;;;;;;10.05;3.15;;;;;;;;;;5095300;28;20060;-57
2024/01/08 12:34:36;;;;;;;12.30;3.25;;;;;;;;;;5096663;28;20142;-57
2024/01/08 12:37:02;;;;;;;9.38;3.10;;;;;;;;;;5093141;28;20066;-58
2024/01/08 12:39:29;;;;;;;8.43;2.78;;;;;;;;;;5096117;27;20054;-58
2024/01/08 12:41:55;;;;;;;11.15;3.35;;;;;;;;;;5098411;28;20664;-58
2024/01/08 12:44:29;;;;;;;12.98;3.22;;;;;;;;;;5097740;28;20055;-57
2024/01/08 12:46:55;;;;;;;12.32;3.13;;;;;;;;;;5096127;28;20753;-56
2024/01/08 12:49:20;;;;;;;13.52;3.17;;;;;;;;;;5095063;28;20100;-56
2024/01/08 12:51:46;;;;;;;11.18;3.40;;;;;;;;;;5097450;28;20145;-57
2024/01/08 12:54:11;;;;;;;10.97;3.13;;;;;;;;;;5098120;28;20058;-58
2024/01/08 12:56:37;;;;;;;12.15;3.05;;;;;;;;;;5110720;28;20809;-58
2024/01/08 12:59:02;;;;;;;10.68;3.00;;;;;;;;;;5102094;28;20011;-58
2024/01/08 13:01:27;;;;;;;11.13;3.22;;;;;;;;;;5113491;28;20008;-58
2024/01/08 13:03:53;;;;;;;8.57;2.80;;;;;;;;;;5113153;28;20083;-56
2024/01/08 13:06:22;;;;;;;10.05;2.72;;;;;;;;;;5112758;28;20073;-56
2024/01/08 13:08:47;;;;;;;9.50;2.90;;;;;;;;;;5113015;28;20019;-56
2024/01/08 13:11:12;;;;;;;10.27;3.10;;;;;;;;;;5113036;28;20068;-57
2024/01/08 13:13:38;;;;;;;9.60;2.55;;;;;;;;;;5098088;28;20022;-58
2024/01/08 13:16:03;;;;;;;9.48;2.65;;;;;;;;;;5083561;28;20020;-57
2024/01/08 13:18:29;;;;;;;9.43;2.78;;;;;;;;;;5093103;28;20776;-57
2024/01/08 13:20:54;;;;;;;9.85;2.60;;;;;;;;;;5092984;28;20440;-57
2024/01/08 13:23:19;;;;;;;14.35;2.88;;;;;;;;;;5093133;28;20024;-58
2024/01/08 13:25:45;;;;;;;10.10;2.95;;;;;;;;;;5092677;28;20032;-58
2024/01/08 13:28:10;;;;;;;8.25;2.80;;;;;;;;;;5092586;28;20388;-57
2024/01/08 13:30:35;;;;;;;8.87;2.70;;;;;;;;;;5092335;28;20035;-58
2024/01/08 13:33:00;;;;;;;9.03;2.97;;;;;;;;;;5091735;28;20262;-58
2024/01/08 13:35:25;;;;;;;6.70;2.43;;;;;;;;;;5092378;28;20368;-58
2024/01/08 13:37:50;;;;;;;9.43;2.70;;;;;;;;;;5092134;28;20341;-58
2024/01/08 13:40:20;;;;;;;9.20;2.60;;;;;;;;;;5092032;28;20345;-58
2024/01/08 13:42:49;;;;;;;10.48;2.58;;;;;;;;;;5092136;28;20032;-57
2024/01/08 13:45:15;;;;;;;9.50;3.08;;;;;;;;;;5092686;28;20093;-58
2024/01/08 13:47:40;;;;;;;9.50;3.00;;;;;;;;;;5092668;28;20027;-57
2024/01/08 13:50:07;;;;;;;9.23;2.80;;;;;;;;;;5087041;28;20388;-57
2024/01/08 13:52:32;;;;;;;9.55;2.83;;;;;;;;;;5084337;28;20047;-57
2024/01/08 13:54:57;;;;;;;9.15;2.72;;;;;;;;;;5082056;28;20094;-57
2024/01/08 13:57:22;;;;;;;12.20;3.40;;;;;;;;;;5097438;28;20015;-58
2024/01/08 13:59:48;;;;;;;6.80;2.55;;;;;;;;;;5099269;28;20348;-57
2024/01/08 14:02:13;;;;;;;9.50;2.70;;;;;;;;;;5096470;28;20024;-58
2024/01/08 14:04:38;;;;;;;8.07;2.40;;;;;;;;;;5095771;28;20028;-57
2024/01/08 14:07:03;;;;;;;8.40;2.97;;;;;;;;;;5096265;28;20107;-58
2024/01/08 14:09:28;;;;;;;8.77;2.70;;;;;;;;;;5096610;28;20275;-56
2024/01/08 14:11:54;;;;;;;10.30;2.60;;;;;;;;;;5095682;28;20401;-57
2024/01/08 14:14:19;;;;;;;8.93;2.90;;;;;;;;;;5094558;28;20026;-58
2024/01/08 14:16:45;;;;;;;8.70;2.70;;;;;;;;;;5092826;28;20804;-56
2024/01/08 14:19:11;;;;;;;8.32;2.67;;;;;;;;;;5094921;28;20030;-58
2024/01/08 14:21:37;;;;;;;10.90;2.90;;;;;;;;;;5095455;27;20023;-56
2024/01/08 14:24:02;;;;;;;8.82;2.58;;;;;;;;;;5092862;28;20035;-58